Terminal Aerodrome Forecast
Issued by NWS

Home | Current Version | Previous Version | Graphics & Text | Print | Product List | Glossary On
Versions: 1 2 3 4 5 6 7 8 9 10 11 12 13 14 15 16 17 18 19
000
FTUS43 KMPX 221100
TAFAXN
TAF
KAXN 221130Z 2212/2312 31014KT P6SM SCT008 OVC014
      TEMPO 2212/2215 BKN008
     FM221500 34017G24KT P6SM SCT016 SCT250
     FM222100 34012KT P6SM FEW250
     FM230200 35006KT P6SM SKC=

USA.gov is the U.S. government's official web portal to all federal, state and local government web resources and services.